sensor_id;sensor_type;location;lat;lon;timestamp;temperature;humidity
23697;DHT22;48864;50.820;4.400;2022-08-18T00:04:36;21.40;99.90
23697;DHT22;48864;50.820;4.400;2022-08-18T00:07:05;21.40;99.90
23697;DHT22;48864;50.820;4.400;2022-08-18T00:09:33;21.20;99.90
23697;DHT22;48864;50.820;4.400;2022-08-18T00:12:01;21.20;99.90
23697;DHT22;48864;50.820;4.400;2022-08-18T00:14:28;21.20;99.90
23697;DHT22;48864;50.820;4.400;2022-08-18T00:16:54;21.10;99.90
23697;DHT22;48864;50.820;4.400;2022-08-18T00:19:20;21.10;99.90
23697;DHT22;48864;50.820;4.400;2022-08-18T00:21:46;21.10;99.90
23697;DHT22;48864;50.820;4.400;2022-08-18T00:24:12;21.20;99.90
23697;DHT22;48864;50.820;4.400;2022-08-18T00:26:37;21.20;99.90
23697;DHT22;48864;50.820;4.400;2022-08-18T00:29:03;21.30;99.90
23697;DHT22;48864;50.820;4.400;2022-08-18T00:31:29;21.20;99.90
23697;DHT22;48864;50.820;4.400;2022-08-18T00:33:55;21.20;99.90
23697;DHT22;48864;50.820;4.400;2022-08-18T00:36:21;21.10;99.90
23697;DHT22;48864;50.820;4.400;2022-08-18T00:38:46;21.10;99.90
23697;DHT22;48864;50.820;4.400;2022-08-18T00:41:12;21.10;99.90
23697;DHT22;48864;50.820;4.400;2022-08-18T00:43:47;21.00;99.90
23697;DHT22;48864;50.820;4.400;2022-08-18T00:46:18;21.00;99.90
23697;DHT22;48864;50.820;4.400;2022-08-18T00:48:45;21.00;99.90
23697;DHT22;48864;50.820;4.400;2022-08-18T00:51:22;21.10;99.90
23697;DHT22;48864;50.820;4.400;2022-08-18T00:54:02;21.10;99.90
23697;DHT22;48864;50.820;4.400;2022-08-18T00:56:43;21.00;99.90
23697;DHT22;48864;50.820;4.400;2022-08-18T00:59:20;21.00;99.90
23697;DHT22;48864;50.820;4.400;2022-08-18T01:01:49;21.10;99.90
23697;DHT22;48864;50.820;4.400;2022-08-18T01:04:21;21.10;99.90
23697;DHT22;48864;50.820;4.400;2022-08-18T01:06:52;21.10;99.90
23697;DHT22;48864;50.820;4.400;2022-08-18T01:09:19;21.10;99.90
23697;DHT22;48864;50.820;4.400;2022-08-18T01:11:45;21.10;99.90
23697;DHT22;48864;50.820;4.400;2022-08-18T01:14:12;21.20;99.90
23697;DHT22;48864;50.820;4.400;2022-08-18T01:16:41;21.10;99.90
23697;DHT22;48864;50.820;4.400;2022-08-18T01:19:26;21.20;99.90
23697;DHT22;48864;50.820;4.400;2022-08-18T01:22:39;21.20;99.90
23697;DHT22;48864;50.820;4.400;2022-08-18T01:25:08;21.20;99.90
23697;DHT22;48864;50.820;4.400;2022-08-18T01:28:02;21.20;99.90
23697;DHT22;48864;50.820;4.400;2022-08-18T01:30:29;21.20;99.90
23697;DHT22;48864;50.820;4.400;2022-08-18T01:32:56;21.00;99.90
23697;DHT22;48864;50.820;4.400;2022-08-18T01:35:23;21.10;99.90
23697;DHT22;48864;50.820;4.400;2022-08-18T01:37:51;21.10;99.90
23697;DHT22;48864;50.820;4.400;2022-08-18T01:40:21;21.10;99.90
23697;DHT22;48864;50.820;4.400;2022-08-18T01:42:47;21.00;99.90
23697;DHT22;48864;50.820;4.400;2022-08-18T01:45:15;21.00;99.90
23697;DHT22;48864;50.820;4.400;2022-08-18T01:47:41;21.00;99.90
23697;DHT22;48864;50.820;4.400;2022-08-18T01:50:09;21.10;99.90
23697;DHT22;48864;50.820;4.400;2022-08-18T01:52:38;21.00;99.90
23697;DHT22;48864;50.820;4.400;2022-08-18T01:55:05;21.10;99.90
23697;DHT22;48864;50.820;4.400;2022-08-18T01:57:32;21.10;99.90
23697;DHT22;48864;50.820;4.400;2022-08-18T02:00:00;21.10;99.90
23697;DHT22;48864;50.820;4.400;2022-08-18T02:02:29;21.20;99.90
23697;DHT22;48864;50.820;4.400;2022-08-18T02:05:03;21.10;99.90
23697;DHT22;48864;50.820;4.400;2022-08-18T02:07:29;21.10;99.90
23697;DHT22;48864;50.820;4.400;2022-08-18T02:09:54;21.00;99.90
23697;DHT22;48864;50.820;4.400;2022-08-18T02:12:20;21.00;99.90
23697;DHT22;48864;50.820;4.400;2022-08-18T02:14:45;20.90;99.90
23697;DHT22;48864;50.820;4.400;2022-08-18T02:17:12;20.80;99.90
23697;DHT22;48864;50.820;4.400;2022-08-18T02:19:42;20.90;99.90
23697;DHT22;48864;50.820;4.400;2022-08-18T02:22:11;20.90;99.90
23697;DHT22;48864;50.820;4.400;2022-08-18T02:24:37;20.90;99.90
23697;DHT22;48864;50.820;4.400;2022-08-18T02:27:04;21.00;99.90
23697;DHT22;48864;50.820;4.400;2022-08-18T02:29:30;21.00;99.90
23697;DHT22;48864;50.820;4.400;2022-08-18T02:31:55;21.20;99.90
23697;DHT22;48864;50.820;4.400;2022-08-18T02:34:21;21.30;99.90
23697;DHT22;48864;50.820;4.400;2022-08-18T02:36:46;21.30;99.90
23697;DHT22;48864;50.820;4.400;2022-08-18T02:39:12;21.30;99.90
23697;DHT22;48864;50.820;4.400;2022-08-18T02:41:38;21.20;99.90
23697;DHT22;48864;50.820;4.400;2022-08-18T02:44:05;21.20;99.90
23697;DHT22;48864;50.820;4.400;2022-08-18T02:46:31;21.20;99.90
23697;DHT22;48864;50.820;4.400;2022-08-18T02:48:58;21.10;99.90
23697;DHT22;48864;50.820;4.400;2022-08-18T02:51:24;21.10;99.90
23697;DHT22;48864;50.820;4.400;2022-08-18T02:53:49;21.10;99.90
23697;DHT22;48864;50.820;4.400;2022-08-18T02:56:18;21.20;99.90
23697;DHT22;48864;50.820;4.400;2022-08-18T02:59:03;21.20;99.90
23697;DHT22;48864;50.820;4.400;2022-08-18T03:01:35;21.10;99.90
23697;DHT22;48864;50.820;4.400;2022-08-18T03:04:03;21.10;99.90
23697;DHT22;48864;50.820;4.400;2022-08-18T03:06:31;21.20;99.90
23697;DHT22;48864;50.820;4.400;2022-08-18T03:08:57;21.20;99.90
23697;DHT22;48864;50.820;4.400;2022-08-18T03:11:27;21.30;99.90
23697;DHT22;48864;50.820;4.400;2022-08-18T03:13:53;21.30;99.90
23697;DHT22;48864;50.820;4.400;2022-08-18T03:16:19;21.30;99.90
23697;DHT22;48864;50.820;4.400;2022-08-18T03:18:46;21.30;99.90
23697;DHT22;48864;50.820;4.400;2022-08-18T03:21:18;21.20;99.90
23697;DHT22;48864;50.820;4.400;2022-08-18T03:23:46;21.20;99.90
23697;DHT22;48864;50.820;4.400;2022-08-18T03:26:14;21.10;99.90
23697;DHT22;48864;50.820;4.400;2022-08-18T03:28:42;21.10;99.90
23697;DHT22;48864;50.820;4.400;2022-08-18T03:31:09;21.00;99.90
23697;DHT22;48864;50.820;4.400;2022-08-18T03:33:36;21.00;99.90
23697;DHT22;48864;50.820;4.400;2022-08-18T03:36:10;21.00;99.90
23697;DHT22;48864;50.820;4.400;2022-08-18T03:38:37;21.00;99.90
23697;DHT22;48864;50.820;4.400;2022-08-18T03:41:05;21.10;99.90
23697;DHT22;48864;50.820;4.400;2022-08-18T03:43:31;21.00;99.90
23697;DHT22;48864;50.820;4.400;2022-08-18T03:46:05;21.10;99.90
23697;DHT22;48864;50.820;4.400;2022-08-18T03:48:31;21.10;99.90
23697;DHT22;48864;50.820;4.400;2022-08-18T03:51:05;21.00;99.90
23697;DHT22;48864;50.820;4.400;2022-08-18T03:53:33;20.90;99.90
23697;DHT22;48864;50.820;4.400;2022-08-18T03:56:01;20.90;99.90
23697;DHT22;48864;50.820;4.400;2022-08-18T03:58:30;21.00;99.90
23697;DHT22;48864;50.820;4.400;2022-08-18T04:00:56;21.00;99.90
23697;DHT22;48864;50.820;4.400;2022-08-18T04:03:21;21.10;99.90
23697;DHT22;48864;50.820;4.400;2022-08-18T04:05:47;21.10;99.90
23697;DHT22;48864;50.820;4.400;2022-08-18T04:08:12;21.10;99.90
23697;DHT22;48864;50.820;4.400;2022-08-18T04:10:38;21.10;99.90
23697;DHT22;48864;50.820;4.400;2022-08-18T04:13:04;21.10;99.90
23697;DHT22;48864;50.820;4.400;2022-08-18T04:15:32;21.10;99.90
23697;DHT22;48864;50.820;4.400;2022-08-18T04:18:00;21.10;99.90
23697;DHT22;48864;50.820;4.400;2022-08-18T04:20:29;21.10;99.90
23697;DHT22;48864;50.820;4.400;2022-08-18T04:23:10;21.20;99.90
23697;DHT22;48864;50.820;4.400;2022-08-18T04:25:36;21.20;99.90
23697;DHT22;48864;50.820;4.400;2022-08-18T04:28:01;21.20;99.90
23697;DHT22;48864;50.820;4.400;2022-08-18T04:30:27;21.20;99.90
23697;DHT22;48864;50.820;4.400;2022-08-18T04:32:53;21.20;99.90
23697;DHT22;48864;50.820;4.400;2022-08-18T04:35:19;21.10;99.90
23697;DHT22;48864;50.820;4.400;2022-08-18T04:37:45;21.20;99.90
23697;DHT22;48864;50.820;4.400;2022-08-18T04:40:12;21.20;99.90
23697;DHT22;48864;50.820;4.400;2022-08-18T04:42:38;21.20;99.90
23697;DHT22;48864;50.820;4.400;2022-08-18T04:45:04;21.10;99.90
23697;DHT22;48864;50.820;4.400;2022-08-18T04:47:31;21.10;99.90
23697;DHT22;48864;50.820;4.400;2022-08-18T04:49:56;21.10;99.90
23697;DHT22;48864;50.820;4.400;2022-08-18T04:52:22;21.00;99.90
23697;DHT22;48864;50.820;4.400;2022-08-18T04:55:07;21.10;99.90
23697;DHT22;48864;50.820;4.400;2022-08-18T04:57:33;21.10;99.90
23697;DHT22;48864;50.820;4.400;2022-08-18T04:59:59;21.10;99.90
23697;DHT22;48864;50.820;4.400;2022-08-18T05:02:24;21.20;99.90
23697;DHT22;48864;50.820;4.400;2022-08-18T05:04:50;21.10;99.90
23697;DHT22;48864;50.820;4.400;2022-08-18T05:07:18;21.10;99.90
23697;DHT22;48864;50.820;4.400;2022-08-18T05:09:44;21.20;99.90
23697;DHT22;48864;50.820;4.400;2022-08-18T05:12:11;21.30;99.90
23697;DHT22;48864;50.820;4.400;2022-08-18T05:14:40;21.20;99.90
23697;DHT22;48864;50.820;4.400;2022-08-18T05:17:06;21.20;99.90
23697;DHT22;48864;50.820;4.400;2022-08-18T05:19:32;21.20;99.90
23697;DHT22;48864;50.820;4.400;2022-08-18T05:22:00;21.20;99.90
23697;DHT22;48864;50.820;4.400;2022-08-18T05:24:27;21.10;99.90
23697;DHT22;48864;50.820;4.400;2022-08-18T05:26:53;21.20;99.90
23697;DHT22;48864;50.820;4.400;2022-08-18T05:29:20;21.20;99.90
23697;DHT22;48864;50.820;4.400;2022-08-18T05:31:48;21.20;99.90
23697;DHT22;48864;50.820;4.400;2022-08-18T05:34:14;21.20;99.90
23697;DHT22;48864;50.820;4.400;2022-08-18T05:42:20;21.30;99.90
23697;DHT22;48864;50.820;4.400;2022-08-18T05:44:25;21.30;99.90
23697;DHT22;48864;50.820;4.400;2022-08-18T05:46:53;21.40;99.90
23697;DHT22;48864;50.820;4.400;2022-08-18T05:49:20;21.50;99.90
23697;DHT22;48864;50.820;4.400;2022-08-18T05:52:08;21.60;99.90
23697;DHT22;48864;50.820;4.400;2022-08-18T05:54:50;21.80;99.90
23697;DHT22;48864;50.820;4.400;2022-08-18T05:58:00;21.90;99.90
23697;DHT22;48864;50.820;4.400;2022-08-18T06:00:30;21.90;99.90
23697;DHT22;48864;50.820;4.400;2022-08-18T06:03:15;21.80;99.90
23697;DHT22;48864;50.820;4.400;2022-08-18T06:05:56;21.90;99.90
23697;DHT22;48864;50.820;4.400;2022-08-18T06:08:28;21.80;99.90
23697;DHT22;48864;50.820;4.400;2022-08-18T06:10:56;21.80;99.90
23697;DHT22;48864;50.820;4.400;2022-08-18T06:13:21;21.70;99.90
23697;DHT22;48864;50.820;4.400;2022-08-18T06:27:16;21.80;99.90
23697;DHT22;48864;50.820;4.400;2022-08-18T06:35:37;21.90;99.90
23697;DHT22;48864;50.820;4.400;2022-08-18T06:38:36;22.00;99.90
23697;DHT22;48864;50.820;4.400;2022-08-18T06:43:57;21.90;99.90
23697;DHT22;48864;50.820;4.400;2022-08-18T06:46:43;21.90;99.90
23697;DHT22;48864;50.820;4.400;2022-08-18T06:49:48;21.90;99.90
23697;DHT22;48864;50.820;4.400;2022-08-18T06:52:27;22.00;99.90
23697;DHT22;48864;50.820;4.400;2022-08-18T06:54:56;22.00;99.90
23697;DHT22;48864;50.820;4.400;2022-08-18T07:00:00;22.10;99.90
23697;DHT22;48864;50.820;4.400;2022-08-18T07:02:39;22.10;99.90
23697;DHT22;48864;50.820;4.400;2022-08-18T07:05:28;22.10;99.90
23697;DHT22;48864;50.820;4.400;2022-08-18T07:10:53;22.20;99.90
23697;DHT22;48864;50.820;4.400;2022-08-18T07:13:26;22.20;99.90
23697;DHT22;48864;50.820;4.400;2022-08-18T07:15:54;22.30;99.90
23697;DHT22;48864;50.820;4.400;2022-08-18T07:18:23;22.20;99.90
23697;DHT22;48864;50.820;4.400;2022-08-18T07:20:58;22.20;99.90
23697;DHT22;48864;50.820;4.400;2022-08-18T07:23:31;22.20;99.90
23697;DHT22;48864;50.820;4.400;2022-08-18T07:26:17;22.30;99.90
23697;DHT22;48864;50.820;4.400;2022-08-18T07:28:47;22.40;99.90
23697;DHT22;48864;50.820;4.400;2022-08-18T07:31:35;22.40;99.90
23697;DHT22;48864;50.820;4.400;2022-08-18T07:36:57;22.50;99.90
23697;DHT22;48864;50.820;4.400;2022-08-18T07:39:30;22.50;99.90
23697;DHT22;48864;50.820;4.400;2022-08-18T07:42:16;22.50;99.90
23697;DHT22;48864;50.820;4.400;2022-08-18T07:47:34;22.60;99.90
23697;DHT22;48864;50.820;4.400;2022-08-18T07:50:06;22.60;99.90
23697;DHT22;48864;50.820;4.400;2022-08-18T07:52:37;22.70;99.90
23697;DHT22;48864;50.820;4.400;2022-08-18T08:00:54;22.70;99.90
23697;DHT22;48864;50.820;4.400;2022-08-18T08:03:37;22.70;99.90
23697;DHT22;48864;50.820;4.400;2022-08-18T08:11:40;22.60;99.90
23697;DHT22;48864;50.820;4.400;2022-08-18T08:16:47;22.60;99.90
23697;DHT22;48864;50.820;4.400;2022-08-18T08:31:08;22.60;99.90
23697;DHT22;48864;50.820;4.400;2022-08-18T08:33:42;22.70;99.90
23697;DHT22;48864;50.820;4.400;2022-08-18T08:36:20;22.70;99.90
23697;DHT22;48864;50.820;4.400;2022-08-18T08:38:53;22.80;99.90
23697;DHT22;48864;50.820;4.400;2022-08-18T08:41:31;22.90;99.90
23697;DHT22;48864;50.820;4.400;2022-08-18T08:44:17;22.90;99.90
23697;DHT22;48864;50.820;4.400;2022-08-18T08:47:06;23.10;99.90
23697;DHT22;48864;50.820;4.400;2022-08-18T08:49:45;23.20;99.90
23697;DHT22;48864;50.820;4.400;2022-08-18T08:52:20;23.10;99.90
23697;DHT22;48864;50.820;4.400;2022-08-18T08:54:57;23.10;99.90
23697;DHT22;48864;50.820;4.400;2022-08-18T08:57:34;23.00;99.90
23697;DHT22;48864;50.820;4.400;2022-08-18T09:00:06;23.00;99.90
23697;DHT22;48864;50.820;4.400;2022-08-18T09:05:45;22.80;99.90
23697;DHT22;48864;50.820;4.400;2022-08-18T09:08:37;22.80;99.90
23697;DHT22;48864;50.820;4.400;2022-08-18T09:11:45;22.90;99.90
23697;DHT22;48864;50.820;4.400;2022-08-18T09:21:56;23.30;99.90
23697;DHT22;48864;50.820;4.400;2022-08-18T09:24:26;23.40;99.90
23697;DHT22;48864;50.820;4.400;2022-08-18T09:40:13;23.70;99.90
23697;DHT22;48864;50.820;4.400;2022-08-18T09:43:31;23.90;99.90
23697;DHT22;48864;50.820;4.400;2022-08-18T09:45:59;23.80;99.90
23697;DHT22;48864;50.820;4.400;2022-08-18T09:48:33;23.80;99.90
23697;DHT22;48864;50.820;4.400;2022-08-18T10:07:49;24.00;99.90
23697;DHT22;48864;50.820;4.400;2022-08-18T10:10:40;24.00;99.90
23697;DHT22;48864;50.820;4.400;2022-08-18T10:16:32;23.90;99.90
23697;DHT22;48864;50.820;4.400;2022-08-18T10:19:16;23.70;99.90
23697;DHT22;48864;50.820;4.400;2022-08-18T10:24:37;23.70;99.90
23697;DHT22;48864;50.820;4.400;2022-08-18T10:27:11;23.80;99.90
23697;DHT22;48864;50.820;4.400;2022-08-18T10:29:56;23.90;99.90
23697;DHT22;48864;50.820;4.400;2022-08-18T10:32:34;23.90;99.90
23697;DHT22;48864;50.820;4.400;2022-08-18T10:35:00;24.00;99.90
23697;DHT22;48864;50.820;4.400;2022-08-18T10:37:42;24.10;99.90
23697;DHT22;48864;50.820;4.400;2022-08-18T10:42:39;24.10;99.90
23697;DHT22;48864;50.820;4.400;2022-08-18T10:47:34;24.20;99.90
23697;DHT22;48864;50.820;4.400;2022-08-18T10:50:17;24.20;99.90
23697;DHT22;48864;50.820;4.400;2022-08-18T10:53:21;24.20;99.90
23697;DHT22;48864;50.820;4.400;2022-08-18T10:55:57;24.10;99.90
23697;DHT22;48864;50.820;4.400;2022-08-18T11:04:30;24.20;99.90
23697;DHT22;48864;50.820;4.400;2022-08-18T11:07:16;24.30;99.90
23697;DHT22;48864;50.820;4.400;2022-08-18T11:09:46;24.40;99.90
23697;DHT22;48864;50.820;4.400;2022-08-18T11:12:14;24.50;99.90
23697;DHT22;48864;50.820;4.400;2022-08-18T11:15:12;24.60;99.90
23697;DHT22;48864;50.820;4.400;2022-08-18T11:20:28;24.80;99.90
23697;DHT22;48864;50.820;4.400;2022-08-18T11:22:58;24.80;99.90
23697;DHT22;48864;50.820;4.400;2022-08-18T11:25:26;24.80;99.90
23697;DHT22;48864;50.820;4.400;2022-08-18T11:27:52;24.80;99.90
23697;DHT22;48864;50.820;4.400;2022-08-18T11:30:19;24.90;99.90
23697;DHT22;48864;50.820;4.400;2022-08-18T11:32:45;25.00;99.90
23697;DHT22;48864;50.820;4.400;2022-08-18T11:48:35;24.90;99.90
23697;DHT22;48864;50.820;4.400;2022-08-18T12:04:07;24.90;99.90
23697;DHT22;48864;50.820;4.400;2022-08-18T12:06:40;24.90;99.90
23697;DHT22;48864;50.820;4.400;2022-08-18T12:09:31;25.00;99.90
23697;DHT22;48864;50.820;4.400;2022-08-18T12:11:58;25.00;99.90
23697;DHT22;48864;50.820;4.400;2022-08-18T12:14:31;25.00;99.90
23697;DHT22;48864;50.820;4.400;2022-08-18T12:16:57;25.10;99.90
23697;DHT22;48864;50.820;4.400;2022-08-18T12:19:23;25.10;99.90
23697;DHT22;48864;50.820;4.400;2022-08-18T12:21:53;25.10;99.90
23697;DHT22;48864;50.820;4.400;2022-08-18T12:24:25;25.30;99.90
23697;DHT22;48864;50.820;4.400;2022-08-18T12:26:52;25.30;99.90
23697;DHT22;48864;50.820;4.400;2022-08-18T12:29:18;25.30;99.90
23697;DHT22;48864;50.820;4.400;2022-08-18T12:31:45;25.30;99.90
23697;DHT22;48864;50.820;4.400;2022-08-18T12:34:11;25.30;99.90
23697;DHT22;48864;50.820;4.400;2022-08-18T12:36:37;25.40;99.90
23697;DHT22;48864;50.820;4.400;2022-08-18T12:39:03;25.30;99.90
23697;DHT22;48864;50.820;4.400;2022-08-18T12:41:29;25.30;99.90
23697;DHT22;48864;50.820;4.400;2022-08-18T12:43:55;25.30;99.90
23697;DHT22;48864;50.820;4.400;2022-08-18T12:46:20;25.40;99.90
23697;DHT22;48864;50.820;4.400;2022-08-18T12:48:46;25.70;99.90
23697;DHT22;48864;50.820;4.400;2022-08-18T12:51:12;25.80;99.90
23697;DHT22;48864;50.820;4.400;2022-08-18T12:53:39;26.00;99.90
23697;DHT22;48864;50.820;4.400;2022-08-18T12:56:07;26.10;99.90
23697;DHT22;48864;50.820;4.400;2022-08-18T12:58:37;26.20;99.90
23697;DHT22;48864;50.820;4.400;2022-08-18T13:01:03;26.20;99.90
23697;DHT22;48864;50.820;4.400;2022-08-18T13:03:28;26.20;99.90
23697;DHT22;48864;50.820;4.400;2022-08-18T13:05:54;26.20;99.90
23697;DHT22;48864;50.820;4.400;2022-08-18T13:08:21;26.30;99.90
23697;DHT22;48864;50.820;4.400;2022-08-18T13:10:46;26.30;99.90
23697;DHT22;48864;50.820;4.400;2022-08-18T13:13:17;26.30;99.90
23697;DHT22;48864;50.820;4.400;2022-08-18T13:15:44;26.40;99.90
23697;DHT22;48864;50.820;4.400;2022-08-18T13:18:11;26.40;99.90
23697;DHT22;48864;50.820;4.400;2022-08-18T13:20:36;26.40;99.90
23697;DHT22;48864;50.820;4.400;2022-08-18T13:23:02;26.50;99.90
23697;DHT22;48864;50.820;4.400;2022-08-18T13:25:28;26.30;99.90
23697;DHT22;48864;50.820;4.400;2022-08-18T13:27:54;26.30;99.90
23697;DHT22;48864;50.820;4.400;2022-08-18T13:30:20;26.40;99.90
23697;DHT22;48864;50.820;4.400;2022-08-18T13:32:46;26.70;99.90
23697;DHT22;48864;50.820;4.400;2022-08-18T13:35:12;26.70;99.90
23697;DHT22;48864;50.820;4.400;2022-08-18T13:37:38;26.60;99.90
23697;DHT22;48864;50.820;4.400;2022-08-18T13:40:06;26.50;99.90
23697;DHT22;48864;50.820;4.400;2022-08-18T13:42:44;26.50;99.90
23697;DHT22;48864;50.820;4.400;2022-08-18T13:45:11;26.70;99.90
23697;DHT22;48864;50.820;4.400;2022-08-18T13:47:38;26.70;99.90
23697;DHT22;48864;50.820;4.400;2022-08-18T13:50:04;26.80;99.90
23697;DHT22;48864;50.820;4.400;2022-08-18T13:52:30;26.90;99.90
23697;DHT22;48864;50.820;4.400;2022-08-18T13:54:57;27.10;99.90
23697;DHT22;48864;50.820;4.400;2022-08-18T13:57:22;27.20;99.90
23697;DHT22;48864;50.820;4.400;2022-08-18T13:59:48;27.30;99.90
23697;DHT22;48864;50.820;4.400;2022-08-18T14:02:13;27.30;99.90
23697;DHT22;48864;50.820;4.400;2022-08-18T14:04:39;27.50;99.90
23697;DHT22;48864;50.820;4.400;2022-08-18T14:07:06;27.50;99.90
23697;DHT22;48864;50.820;4.400;2022-08-18T14:09:34;27.60;99.90
23697;DHT22;48864;50.820;4.400;2022-08-18T14:12:02;27.60;99.90
23697;DHT22;48864;50.820;4.400;2022-08-18T14:14:27;27.60;99.90
23697;DHT22;48864;50.820;4.400;2022-08-18T14:16:53;27.80;99.90
23697;DHT22;48864;50.820;4.400;2022-08-18T14:19:18;27.70;99.90
23697;DHT22;48864;50.820;4.400;2022-08-18T14:22:03;27.80;99.90
23697;DHT22;48864;50.820;4.400;2022-08-18T14:24:47;27.40;99.90
23697;DHT22;48864;50.820;4.400;2022-08-18T14:27:34;27.10;99.90
23697;DHT22;48864;50.820;4.400;2022-08-18T14:30:03;26.90;99.90
23697;DHT22;48864;50.820;4.400;2022-08-18T14:32:29;26.90;99.90
23697;DHT22;48864;50.820;4.400;2022-08-18T14:34:56;26.90;99.90
23697;DHT22;48864;50.820;4.400;2022-08-18T14:37:22;27.00;99.90
23697;DHT22;48864;50.820;4.400;2022-08-18T14:39:49;26.90;99.90
23697;DHT22;48864;50.820;4.400;2022-08-18T14:42:15;26.90;99.90
23697;DHT22;48864;50.820;4.400;2022-08-18T14:44:43;27.10;99.90
23697;DHT22;48864;50.820;4.400;2022-08-18T14:47:09;27.30;99.90
23697;DHT22;48864;50.820;4.400;2022-08-18T14:49:35;27.20;99.90
23697;DHT22;48864;50.820;4.400;2022-08-18T14:52:02;27.10;99.90
23697;DHT22;48864;50.820;4.400;2022-08-18T14:54:29;27.10;99.90
23697;DHT22;48864;50.820;4.400;2022-08-18T14:56:54;27.20;99.90
23697;DHT22;48864;50.820;4.400;2022-08-18T14:59:20;27.10;99.90
23697;DHT22;48864;50.820;4.400;2022-08-18T15:01:49;27.20;99.90
23697;DHT22;48864;50.820;4.400;2022-08-18T15:04:17;27.40;99.90
23697;DHT22;48864;50.820;4.400;2022-08-18T15:06:43;27.70;99.90
23697;DHT22;48864;50.820;4.400;2022-08-18T15:09:08;27.90;99.90
23697;DHT22;48864;50.820;4.400;2022-08-18T15:11:34;27.90;99.90
23697;DHT22;48864;50.820;4.400;2022-08-18T15:14:00;27.80;99.90
23697;DHT22;48864;50.820;4.400;2022-08-18T15:16:30;27.90;99.90
23697;DHT22;48864;50.820;4.400;2022-08-18T15:19:00;27.90;99.90
23697;DHT22;48864;50.820;4.400;2022-08-18T15:21:27;28.10;99.90
23697;DHT22;48864;50.820;4.400;2022-08-18T15:24:12;28.40;99.90
23697;DHT22;48864;50.820;4.400;2022-08-18T15:26:57;28.20;99.90
23697;DHT22;48864;50.820;4.400;2022-08-18T15:29:23;28.20;99.90
23697;DHT22;48864;50.820;4.400;2022-08-18T15:31:49;28.50;99.90
23697;DHT22;48864;50.820;4.400;2022-08-18T15:34:16;28.60;99.90
23697;DHT22;48864;50.820;4.400;2022-08-18T15:36:42;28.50;99.90
23697;DHT22;48864;50.820;4.400;2022-08-18T15:39:08;28.60;99.90
23697;DHT22;48864;50.820;4.400;2022-08-18T15:41:42;28.60;99.90
23697;DHT22;48864;50.820;4.400;2022-08-18T15:44:11;28.40;99.90
23697;DHT22;48864;50.820;4.400;2022-08-18T15:47:02;27.90;99.90
23697;DHT22;48864;50.820;4.400;2022-08-18T15:49:29;27.50;99.90
23697;DHT22;48864;50.820;4.400;2022-08-18T15:51:55;27.40;99.90
23697;DHT22;48864;50.820;4.400;2022-08-18T15:54:20;27.30;99.90
23697;DHT22;48864;50.820;4.400;2022-08-18T15:56:46;27.20;99.90
23697;DHT22;48864;50.820;4.400;2022-08-18T15:59:34;27.20;99.90
23697;DHT22;48864;50.820;4.400;2022-08-18T16:02:00;27.30;99.90
23697;DHT22;48864;50.820;4.400;2022-08-18T16:04:26;27.30;99.90
23697;DHT22;48864;50.820;4.400;2022-08-18T16:07:05;27.30;99.90
23697;DHT22;48864;50.820;4.400;2022-08-18T16:09:30;27.30;99.90
23697;DHT22;48864;50.820;4.400;2022-08-18T16:11:56;27.30;99.90
23697;DHT22;48864;50.820;4.400;2022-08-18T16:14:22;27.30;99.90
23697;DHT22;48864;50.820;4.400;2022-08-18T16:16:48;27.40;99.90
23697;DHT22;48864;50.820;4.400;2022-08-18T16:19:13;27.40;99.90
23697;DHT22;48864;50.820;4.400;2022-08-18T16:21:39;27.50;99.90
23697;DHT22;48864;50.820;4.400;2022-08-18T16:24:05;27.70;99.90
23697;DHT22;48864;50.820;4.400;2022-08-18T16:26:31;27.80;99.90
23697;DHT22;48864;50.820;4.400;2022-08-18T16:28:56;27.90;99.90
23697;DHT22;48864;50.820;4.400;2022-08-18T16:31:22;28.10;99.90
23697;DHT22;48864;50.820;4.400;2022-08-18T16:33:54;28.40;99.90
23697;DHT22;48864;50.820;4.400;2022-08-18T16:36:29;28.40;99.90
23697;DHT22;48864;50.820;4.400;2022-08-18T16:38:54;28.30;99.90
23697;DHT22;48864;50.820;4.400;2022-08-18T16:41:20;28.40;99.90
23697;DHT22;48864;50.820;4.400;2022-08-18T16:43:47;28.50;99.90
23697;DHT22;48864;50.820;4.400;2022-08-18T16:46:18;28.60;99.90
23697;DHT22;48864;50.820;4.400;2022-08-18T16:48:47;28.60;99.90
23697;DHT22;48864;50.820;4.400;2022-08-18T16:51:14;28.70;99.90
23697;DHT22;48864;50.820;4.400;2022-08-18T16:53:41;28.60;99.90
23697;DHT22;48864;50.820;4.400;2022-08-18T16:56:12;28.60;99.90
23697;DHT22;48864;50.820;4.400;2022-08-18T16:58:38;28.70;99.90
23697;DHT22;48864;50.820;4.400;2022-08-18T17:01:22;28.70;99.90
23697;DHT22;48864;50.820;4.400;2022-08-18T17:04:06;28.80;99.90
23697;DHT22;48864;50.820;4.400;2022-08-18T17:06:32;28.80;99.90
23697;DHT22;48864;50.820;4.400;2022-08-18T17:08:58;28.80;99.90
23697;DHT22;48864;50.820;4.400;2022-08-18T17:11:26;28.80;99.90
23697;DHT22;48864;50.820;4.400;2022-08-18T17:13:54;28.70;99.90
23697;DHT22;48864;50.820;4.400;2022-08-18T17:16:38;28.60;99.90
23697;DHT22;48864;50.820;4.400;2022-08-18T17:19:05;28.60;99.90
23697;DHT22;48864;50.820;4.400;2022-08-18T17:21:31;28.50;99.90
23697;DHT22;48864;50.820;4.400;2022-08-18T17:23:59;28.40;99.90
23697;DHT22;48864;50.820;4.400;2022-08-18T17:26:47;28.40;99.90
23697;DHT22;48864;50.820;4.400;2022-08-18T17:29:25;28.40;99.90
23697;DHT22;48864;50.820;4.400;2022-08-18T17:32:01;28.20;99.90
23697;DHT22;48864;50.820;4.400;2022-08-18T17:34:36;28.20;99.90
23697;DHT22;48864;50.820;4.400;2022-08-18T17:37:06;28.20;99.90
23697;DHT22;48864;50.820;4.400;2022-08-18T17:39:36;28.00;99.90
23697;DHT22;48864;50.820;4.400;2022-08-18T17:42:07;27.90;99.90
23697;DHT22;48864;50.820;4.400;2022-08-18T17:44:55;27.80;99.90
23697;DHT22;48864;50.820;4.400;2022-08-18T17:50:07;27.80;99.90
23697;DHT22;48864;50.820;4.400;2022-08-18T17:53:03;27.80;99.90
23697;DHT22;48864;50.820;4.400;2022-08-18T17:55:42;27.60;99.90
23697;DHT22;48864;50.820;4.400;2022-08-18T18:01:30;27.10;99.90
23697;DHT22;48864;50.820;4.400;2022-08-18T18:04:00;26.90;99.90
23697;DHT22;48864;50.820;4.400;2022-08-18T18:11:37;26.90;99.90
23697;DHT22;48864;50.820;4.400;2022-08-18T18:14:36;26.90;99.90
23697;DHT22;48864;50.820;4.400;2022-08-18T18:17:25;27.00;99.90
23697;DHT22;48864;50.820;4.400;2022-08-18T18:23:28;26.60;99.90
23697;DHT22;48864;50.820;4.400;2022-08-18T18:25:58;26.50;99.90
23697;DHT22;48864;50.820;4.400;2022-08-18T18:28:42;26.20;99.90
23697;DHT22;48864;50.820;4.400;2022-08-18T18:31:25;26.30;99.90
23697;DHT22;48864;50.820;4.400;2022-08-18T18:34:25;26.40;99.90
23697;DHT22;48864;50.820;4.400;2022-08-18T18:40:52;26.20;99.90
23697;DHT22;48864;50.820;4.400;2022-08-18T18:43:35;26.10;99.90
23697;DHT22;48864;50.820;4.400;2022-08-18T18:49:27;25.90;99.90